createdAt,value
2022-10-11T00:00:59.172Z,88.51
2022-10-11T00:03:35.159Z,88.68
2022-10-11T00:06:05.750Z,88.58
2022-10-11T00:08:34.273Z,88.59
2022-10-11T00:11:06.857Z,88.68
2022-10-11T00:13:35.622Z,88.65
2022-10-11T00:16:08.701Z,88.80
2022-10-11T00:18:36.936Z,89.12
2022-10-11T00:21:08.439Z,89.19
2022-10-11T00:23:37.052Z,89.46
2022-10-11T00:26:08.274Z,89.42
2022-10-11T00:28:37.295Z,89.59
2022-10-11T00:31:11.217Z,89.60
2022-10-11T00:33:39.742Z,89.77
2022-10-11T00:36:08.984Z,89.78
2022-10-11T00:38:37.449Z,89.89
2022-10-11T00:41:05.516Z,89.92
2022-10-11T00:43:34.124Z,89.84
2022-10-11T00:46:04.874Z,89.92
2022-10-11T00:48:50.949Z,90.07
2022-10-11T00:51:43.629Z,89.99
2022-10-11T00:54:15.759Z,90.16
2022-10-11T00:56:49.292Z,90.17
2022-10-11T00:59:23.469Z,90.19
2022-10-11T01:01:52.204Z,90.55
2022-10-11T01:04:20.393Z,90.79
2022-10-11T01:06:50.780Z,90.98
2022-10-11T01:09:20.283Z,91.03
2022-10-11T01:11:50.703Z,91.28
2022-10-11T01:15:06.563Z,91.18
2022-10-11T01:18:07.266Z,91.09
2022-10-11T01:20:49.821Z,91.03
2022-10-11T01:23:32.873Z,90.91
2022-10-11T01:26:16.118Z,91.10
2022-10-11T01:28:59.450Z,91.01
2022-10-11T01:31:45.953Z,90.96
2022-10-11T01:34:15.641Z,90.74
2022-10-11T01:37:17.371Z,90.60
2022-10-11T01:39:54.100Z,90.75
2022-10-11T01:42:23.493Z,90.70
2022-10-11T01:44:52.203Z,90.57
2022-10-11T01:47:21.546Z,89.98
2022-10-11T01:49:58.096Z,89.85
2022-10-11T01:52:27.253Z,89.85
2022-10-11T01:55:29.275Z,89.87
2022-10-11T01:58:37.730Z,89.89
2022-10-11T02:02:11.009Z,89.89
2022-10-11T02:04:52.606Z,89.79
2022-10-11T02:07:38.949Z,89.66
2022-10-11T02:10:28.013Z,89.92
2022-10-11T02:13:26.960Z,90.18
2022-10-11T02:15:58.532Z,90.30
2022-10-11T02:18:32.450Z,90.43
2022-10-11T02:21:03.797Z,90.59
2022-10-11T02:23:38.147Z,90.65
2022-10-11T02:26:09.854Z,90.46
2022-10-11T02:28:41.938Z,90.54
2022-10-11T02:31:12.540Z,90.63
2022-10-11T02:34:00.674Z,90.81
2022-10-11T02:36:43.199Z,91.12
2022-10-11T02:39:23.269Z,91.22
2022-10-11T02:41:53.293Z,91.33
2022-10-11T02:44:32.408Z,91.69
2022-10-11T02:47:01.615Z,91.99
2022-10-11T02:49:31.527Z,91.69
2022-10-11T02:51:59.592Z,91.50
2022-10-11T02:54:27.488Z,91.98
2022-10-11T02:56:55.276Z,92.36
2022-10-11T02:59:23.315Z,92.37
2022-10-11T03:01:51.336Z,92.02
2022-10-11T03:04:19.242Z,91.93
2022-10-11T03:06:47.174Z,91.99
2022-10-11T03:09:15.374Z,92.09
2022-10-11T03:11:43.353Z,91.95
2022-10-11T03:14:11.324Z,92.19
2022-10-11T03:16:39.259Z,91.93
2022-10-11T03:19:07.205Z,91.95
2022-10-11T03:21:36.055Z,91.99
2022-10-11T03:24:04.339Z,91.84
2022-10-11T03:26:32.182Z,91.87
2022-10-11T03:29:00.094Z,91.49
2022-10-11T03:31:28.038Z,91.26
2022-10-11T03:33:55.966Z,91.16
2022-10-11T03:36:23.927Z,91.21
2022-10-11T03:38:51.880Z,91.20
2022-10-11T03:41:19.693Z,91.23
2022-10-11T03:43:47.629Z,91.00
2022-10-11T03:46:15.710Z,91.21
2022-10-11T03:48:43.642Z,91.53
2022-10-11T03:51:13.223Z,91.76
2022-10-11T03:53:41.880Z,91.73
2022-10-11T03:56:10.085Z,91.90
2022-10-11T03:58:38.268Z,92.01
2022-10-11T04:01:06.206Z,91.89
2022-10-11T04:03:34.646Z,91.63
2022-10-11T04:06:03.050Z,91.37
2022-10-11T04:08:31.272Z,91.18
2022-10-11T04:10:59.089Z,91.32
2022-10-11T04:13:26.954Z,91.45
2022-10-11T04:15:54.885Z,91.40
2022-10-11T04:18:22.740Z,91.33
2022-10-11T04:20:50.606Z,91.46
2022-10-11T04:23:18.579Z,91.61
2022-10-11T04:25:48.411Z,91.83
2022-10-11T04:28:16.391Z,91.77
2022-10-11T04:30:44.295Z,91.84
2022-10-11T04:33:12.235Z,91.81
2022-10-11T04:35:40.433Z,91.82
2022-10-11T04:38:08.691Z,91.63
2022-10-11T04:40:37.125Z,91.65
2022-10-11T04:43:05.114Z,91.75
2022-10-11T04:45:33.452Z,92.16
2022-10-11T04:48:03.350Z,92.30
2022-10-11T04:50:31.126Z,92.48
2022-10-11T04:52:59.084Z,92.53
2022-10-11T04:55:27.192Z,92.83
2022-10-11T04:57:55.850Z,93.12
2022-10-11T05:00:23.741Z,93.02
2022-10-11T05:02:53.079Z,92.94
2022-10-11T05:05:20.833Z,93.26
2022-10-11T05:07:48.705Z,93.89
2022-10-11T05:10:16.679Z,93.97
2022-10-11T05:12:44.545Z,93.90
2022-10-11T05:15:12.504Z,93.95
2022-10-11T05:17:40.515Z,93.98
2022-10-11T05:20:08.697Z,93.70
2022-10-11T05:22:36.449Z,93.86
2022-10-11T05:25:05.046Z,93.83
2022-10-11T05:27:32.963Z,93.85
2022-10-11T05:30:00.951Z,93.99
2022-10-11T05:32:29.765Z,93.87
2022-10-11T05:34:57.537Z,93.61
2022-10-11T05:37:25.554Z,93.63
2022-10-11T05:39:53.969Z,93.75
2022-10-11T05:42:21.710Z,94.09
2022-10-11T05:44:49.478Z,94.00
2022-10-11T05:47:17.252Z,93.75
2022-10-11T05:49:45.041Z,93.79
2022-10-11T05:52:13.556Z,93.79
2022-10-11T05:54:44.137Z,93.92
2022-10-11T05:57:11.885Z,94.14
2022-10-11T05:59:39.848Z,93.82
2022-10-11T06:02:12.578Z,94.23
2022-10-11T06:04:40.494Z,94.20
2022-10-11T06:07:08.267Z,94.20
2022-10-11T06:09:36.288Z,94.34
2022-10-11T06:12:04.270Z,94.43
2022-10-11T06:14:32.379Z,94.28
2022-10-11T06:17:00.284Z,94.30
2022-10-11T06:19:28.047Z,94.33
2022-10-11T06:21:55.925Z,94.46
2022-10-11T06:24:23.742Z,94.06
2022-10-11T06:26:51.920Z,94.03
2022-10-11T06:29:19.827Z,94.42
2022-10-11T06:31:48.617Z,94.77
2022-10-11T06:34:16.467Z,94.79
2022-10-11T06:36:44.348Z,94.63
2022-10-11T06:39:12.178Z,94.20
2022-10-11T06:41:39.953Z,93.93
2022-10-11T06:44:14.168Z,94.05
2022-10-11T06:46:42.575Z,93.87
2022-10-11T06:49:10.358Z,93.40
2022-10-11T06:51:38.120Z,93.27
2022-10-11T06:54:06.059Z,93.05
2022-10-11T06:56:33.972Z,93.24
2022-10-11T06:59:03.526Z,92.89
2022-10-11T07:01:32.830Z,93.08
2022-10-11T07:04:01.779Z,93.61
2022-10-11T07:06:30.953Z,93.89
2022-10-11T07:09:00.448Z,94.05
2022-10-11T07:11:29.583Z,94.23
2022-10-11T07:14:01.764Z,94.13
2022-10-11T07:16:30.208Z,93.92
2022-10-11T07:19:01.132Z,93.83
2022-10-11T07:21:31.773Z,93.66
2022-10-11T07:24:01.066Z,93.63
2022-10-11T07:26:33.745Z,93.46
2022-10-11T07:29:06.654Z,93.51
2022-10-11T07:31:37.476Z,93.76
2022-10-11T07:34:05.504Z,93.84
2022-10-11T07:36:33.453Z,93.84
2022-10-11T07:39:07.008Z,93.76
2022-10-11T07:41:35.466Z,94.26
2022-10-11T07:44:03.438Z,94.44
2022-10-11T07:46:31.753Z,94.30
2022-10-11T07:48:59.642Z,94.10
2022-10-11T07:51:27.517Z,94.18
2022-10-11T07:53:57.019Z,93.58
2022-10-11T07:56:28.098Z,93.53
2022-10-11T07:59:01.606Z,93.44
2022-10-11T08:01:30.926Z,93.41
2022-10-11T08:03:59.129Z,92.35
2022-10-11T08:06:31.828Z,91.30
2022-10-11T08:09:02.367Z,90.46
2022-10-11T08:11:34.738Z,91.01
2022-10-11T08:14:08.971Z,90.58
2022-10-11T08:16:39.063Z,90.05
2022-10-11T08:19:07.197Z,90.23
2022-10-11T08:21:35.148Z,90.58
2022-10-11T08:24:05.236Z,88.39
2022-10-11T08:26:34.814Z,87.75
2022-10-11T08:29:04.062Z,88.19
2022-10-11T08:31:35.427Z,88.19
2022-10-11T08:34:03.444Z,87.68
2022-10-11T08:36:31.567Z,87.67
2022-10-11T08:38:59.543Z,86.66
2022-10-11T08:41:46.225Z,85.98
2022-10-11T08:47:41.280Z,85.98
2022-10-11T08:50:18.611Z,86.07
2022-10-11T08:53:11.111Z,86.05
2022-10-11T08:55:44.232Z,86.56
2022-10-11T08:58:16.382Z,86.22
2022-10-11T09:00:47.526Z,85.80
2022-10-11T09:03:21.342Z,85.22
2022-10-11T09:06:01.253Z,84.25
2022-10-11T09:08:41.584Z,84.46
2022-10-11T09:11:21.637Z,84.81
2022-10-11T09:13:57.169Z,84.51
2022-10-11T09:16:57.899Z,84.61
2022-10-11T09:19:33.620Z,84.66
2022-10-11T09:22:20.135Z,84.10
2022-10-11T09:24:54.019Z,84.01
2022-10-11T09:27:57.680Z,84.21
2022-10-11T09:30:24.450Z,83.90
2022-10-11T09:33:02.646Z,83.89
2022-10-11T09:35:38.982Z,84.09
2022-10-11T09:38:30.537Z,83.81
2022-10-11T09:41:30.959Z,83.86
2022-10-11T09:43:59.161Z,83.79
2022-10-11T09:46:30.908Z,82.63
2022-10-11T09:49:02.894Z,81.81
2022-10-11T09:51:31.679Z,82.13
2022-10-11T09:54:02.750Z,82.35
2022-10-11T09:56:33.586Z,82.45
2022-10-11T09:59:21.562Z,81.51
2022-10-11T10:01:49.580Z,81.34
2022-10-11T10:04:17.798Z,81.38
2022-10-11T10:06:45.984Z,81.39
2022-10-11T10:09:31.077Z,81.46
2022-10-11T10:11:58.946Z,81.01
2022-10-11T10:14:31.421Z,80.40
2022-10-11T10:17:02.853Z,80.82
2022-10-11T10:19:54.808Z,81.30
2022-10-11T10:22:27.984Z,81.16
2022-10-11T10:24:58.363Z,80.72
2022-10-11T10:27:28.448Z,80.22
2022-10-11T10:30:16.288Z,80.15
2022-10-11T10:33:13.878Z,80.11
2022-10-11T10:35:47.760Z,80.21
2022-10-11T10:38:30.223Z,79.89
2022-10-11T10:41:03.364Z,79.44
2022-10-11T10:43:36.881Z,79.48
2022-10-11T10:46:32.385Z,79.49
2022-10-11T10:49:53.228Z,77.77
2022-10-11T10:52:46.209Z,76.58
2022-10-11T10:55:43.936Z,74.32
2022-10-11T10:58:29.808Z,75.58
2022-10-11T11:01:06.087Z,76.18
2022-10-11T11:03:48.589Z,75.57
2022-10-11T11:06:48.367Z,75.00
2022-10-11T11:09:38.028Z,74.28
2022-10-11T11:12:30.768Z,74.29
2022-10-11T11:15:32.603Z,72.17
2022-10-11T11:18:41.805Z,71.17
2022-10-11T11:21:28.695Z,71.40
2022-10-11T11:24:23.292Z,71.10
2022-10-11T11:27:33.113Z,70.91
2022-10-11T11:30:33.686Z,71.55
2022-10-11T11:33:19.886Z,70.46
2022-10-11T11:35:52.907Z,70.01
2022-10-11T11:38:32.497Z,69.59
2022-10-11T11:41:05.355Z,69.73
2022-10-11T11:43:56.329Z,69.36
2022-10-11T11:46:30.418Z,68.44
2022-10-11T11:49:02.826Z,66.73
2022-10-11T11:51:35.356Z,66.64
2022-10-11T11:54:15.365Z,67.72
2022-10-11T11:56:59.743Z,68.70
2022-10-11T11:59:44.961Z,68.16
2022-10-11T12:02:50.104Z,67.83
2022-10-11T12:05:22.888Z,67.92
2022-10-11T12:07:59.864Z,65.53
2022-10-11T12:10:53.465Z,64.18
2022-10-11T12:13:41.024Z,65.65
2022-10-11T12:16:17.516Z,65.81
2022-10-11T12:18:57.647Z,65.03
2022-10-11T12:21:40.991Z,66.05
2022-10-11T12:24:21.119Z,65.53
2022-10-11T12:27:10.850Z,65.61
2022-10-11T12:29:44.815Z,66.16
2022-10-11T12:32:28.207Z,66.42
2022-10-11T12:35:31.668Z,65.86
2022-10-11T12:38:26.079Z,64.87
2022-10-11T12:41:18.302Z,65.31
2022-10-11T12:43:49.119Z,64.93
2022-10-11T12:46:29.277Z,64.62
2022-10-11T12:49:21.478Z,64.29
2022-10-11T12:52:00.262Z,63.94
2022-10-11T12:54:49.972Z,63.61
2022-10-11T12:57:56.838Z,63.70
2022-10-11T13:00:29.198Z,63.94
2022-10-11T13:03:01.325Z,64.07
2022-10-11T13:05:45.342Z,64.29
2022-10-11T13:08:25.593Z,64.26
2022-10-11T13:10:57.206Z,64.74
2022-10-11T13:13:32.034Z,64.75
2022-10-11T13:16:08.780Z,65.03
2022-10-11T13:18:36.919Z,65.08
2022-10-11T13:21:25.865Z,63.91
2022-10-11T13:24:16.495Z,63.86
2022-10-11T13:26:46.808Z,64.03
2022-10-11T13:29:18.596Z,64.23
2022-10-11T13:31:48.435Z,62.38
2022-10-11T13:34:22.365Z,63.15
2022-10-11T13:36:58.765Z,63.47
2022-10-11T13:39:34.486Z,63.53
2022-10-11T13:42:09.097Z,64.23
2022-10-11T13:44:39.404Z,64.52
2022-10-11T13:47:16.078Z,64.72
2022-10-11T13:50:23.313Z,64.92
2022-10-11T13:53:02.299Z,65.11
2022-10-11T13:55:42.553Z,65.74
2022-10-11T13:58:18.894Z,66.13
2022-10-11T14:01:03.224Z,66.11
2022-10-11T14:03:40.716Z,65.99
2022-10-11T14:06:09.274Z,66.16
2022-10-11T14:08:47.818Z,66.28
2022-10-11T14:11:16.331Z,66.47
2022-10-11T14:13:50.296Z,66.60
2022-10-11T14:16:21.200Z,66.67
2022-10-11T14:18:51.761Z,66.84
2022-10-11T14:21:19.605Z,67.00
2022-10-11T14:23:51.371Z,67.12
2022-10-11T14:26:20.422Z,67.24
2022-10-11T14:28:53.861Z,67.40
2022-10-11T14:31:23.276Z,68.17
2022-10-11T14:33:51.300Z,68.21
2022-10-11T14:36:22.873Z,67.84
2022-10-11T14:38:54.006Z,67.80
2022-10-11T14:41:22.052Z,67.78
2022-10-11T14:43:50.379Z,67.72
2022-10-11T14:46:24.490Z,67.75
2022-10-11T14:48:55.929Z,67.81
2022-10-11T14:51:30.854Z,67.89
2022-10-11T14:53:58.939Z,67.99
2022-10-11T14:56:27.032Z,68.08
2022-10-11T14:58:54.943Z,68.09
2022-10-11T15:01:22.887Z,68.25
2022-10-11T15:03:50.759Z,68.42
2022-10-11T15:06:32.167Z,68.61
2022-10-11T15:09:00.171Z,68.72
2022-10-11T15:11:28.597Z,68.84
2022-10-11T15:13:57.075Z,69.02
2022-10-11T15:16:26.972Z,69.11
2022-10-11T15:18:54.853Z,69.36
2022-10-11T15:21:25.082Z,69.68
2022-10-11T15:23:54.796Z,69.91
2022-10-11T15:26:26.043Z,70.23
2022-10-11T15:28:55.875Z,70.35
2022-10-11T15:31:24.523Z,70.34
2022-10-11T15:33:52.451Z,70.51
2022-10-11T15:36:22.766Z,70.55
2022-10-11T15:38:51.015Z,70.90
2022-10-11T15:41:20.204Z,71.28
2022-10-11T15:43:49.430Z,71.41
2022-10-11T15:46:22.390Z,71.58
2022-10-11T15:48:51.913Z,71.57
2022-10-11T15:51:19.830Z,71.63
2022-10-11T15:53:47.716Z,71.81
2022-10-11T15:56:18.793Z,71.93
2022-10-11T15:58:46.763Z,71.98
2022-10-11T16:01:19.928Z,71.88
2022-10-11T16:03:49.690Z,71.90
2022-10-11T16:06:19.055Z,72.02
2022-10-11T16:08:47.795Z,72.02
2022-10-11T16:11:15.843Z,72.01
2022-10-11T16:13:45.136Z,72.08
2022-10-11T16:16:13.041Z,72.07
2022-10-11T16:18:41.085Z,72.05
2022-10-11T16:21:11.263Z,72.08
2022-10-11T16:23:39.552Z,72.17
2022-10-11T16:26:11.981Z,72.24
2022-10-11T16:28:40.309Z,72.18
2022-10-11T16:31:14.915Z,72.14
2022-10-11T16:33:46.280Z,71.99
2022-10-11T16:36:36.812Z,71.93
2022-10-11T16:39:14.754Z,72.11
2022-10-11T16:41:43.010Z,72.21
2022-10-11T16:44:20.183Z,72.33
2022-10-11T16:46:49.181Z,72.33
2022-10-11T16:49:19.917Z,72.46
2022-10-11T16:51:48.235Z,72.66
2022-10-11T16:54:20.556Z,72.75
2022-10-11T16:56:50.125Z,72.90
2022-10-11T16:59:18.837Z,73.00
2022-10-11T17:01:46.820Z,73.09
2022-10-11T17:04:15.344Z,73.13
2022-10-11T17:06:44.056Z,73.23
2022-10-11T17:09:12.801Z,73.32
2022-10-11T17:11:40.848Z,73.45
2022-10-11T17:14:09.240Z,73.53
2022-10-11T17:16:37.270Z,73.65
2022-10-11T17:19:08.799Z,73.70
2022-10-11T17:21:36.790Z,73.71
2022-10-11T17:24:05.046Z,73.82
2022-10-11T17:26:33.085Z,73.97
2022-10-11T17:29:01.476Z,74.16
2022-10-11T17:31:30.115Z,74.27
2022-10-11T17:33:59.561Z,74.39
2022-10-11T17:36:34.207Z,74.51
2022-10-11T17:39:05.111Z,74.58
2022-10-11T17:41:33.591Z,74.46
2022-10-11T17:44:03.238Z,74.38
2022-10-11T17:46:33.893Z,74.36
2022-10-11T17:49:05.815Z,74.39
2022-10-11T17:51:35.856Z,74.42
2022-10-11T17:54:04.347Z,74.49
2022-10-11T17:56:37.371Z,74.62
2022-10-11T17:59:06.426Z,74.74
2022-10-11T18:01:34.367Z,74.73
2022-10-11T18:04:04.926Z,74.87
2022-10-11T18:06:38.709Z,74.88
2022-10-11T18:09:07.248Z,74.81
2022-10-11T18:11:35.662Z,74.79
2022-10-11T18:14:05.326Z,74.85
2022-10-11T18:16:33.949Z,74.80
2022-10-11T18:19:04.602Z,74.78
2022-10-11T18:21:34.732Z,74.73
2022-10-11T18:24:10.979Z,74.66
2022-10-11T18:26:44.148Z,74.75
2022-10-11T18:29:15.485Z,74.74
2022-10-11T18:31:43.644Z,74.78
2022-10-11T18:34:13.069Z,74.80
2022-10-11T18:36:41.009Z,74.72
2022-10-11T18:39:13.102Z,74.83
2022-10-11T18:41:44.525Z,74.83
2022-10-11T18:44:15.166Z,74.81
2022-10-11T18:46:44.305Z,74.93
2022-10-11T18:49:13.602Z,74.91
2022-10-11T18:51:42.284Z,74.93
2022-10-11T18:54:14.056Z,74.91
2022-10-11T18:56:47.620Z,75.08
2022-10-11T18:59:19.232Z,75.20
2022-10-11T19:01:52.140Z,75.22
2022-10-11T19:04:20.982Z,75.38
2022-10-11T19:06:53.687Z,75.45
2022-10-11T19:09:24.591Z,75.47
2022-10-11T19:11:57.597Z,75.57
2022-10-11T19:14:28.812Z,75.79
2022-10-11T19:17:04.460Z,76.05
2022-10-11T19:19:47.856Z,76.19
2022-10-11T19:22:35.062Z,76.41
2022-10-11T19:25:08.259Z,76.58
2022-10-11T19:27:36.233Z,76.69
2022-10-11T19:30:06.021Z,76.77
2022-10-11T19:32:33.970Z,76.76
2022-10-11T19:35:02.300Z,76.89
2022-10-11T19:37:30.658Z,77.04
2022-10-11T19:39:59.100Z,77.09
2022-10-11T19:43:47.416Z,77.12
2022-10-11T19:49:14.215Z,76.82
2022-10-11T19:51:45.954Z,76.95
2022-10-11T19:54:19.660Z,77.12
2022-10-11T19:57:14.869Z,77.13
2022-10-11T20:01:12.971Z,77.21
2022-10-11T20:03:45.379Z,77.16
2022-10-11T20:06:26.839Z,77.20
2022-10-11T20:19:03.905Z,77.28
2022-10-11T20:21:34.700Z,77.18
2022-10-11T20:24:12.076Z,77.23
2022-10-11T20:56:24.358Z,77.68
